Hrossey — VSTY6 — position and weather

sailwx.info

Track history (hours):
 
Tides and Currents Weather Stations Pressure Air Temp Water Temp Dewpoint Dewpoint Depression Visibility Wind Speed Wind Dir Waves Ship Positions

Hrossey

Operator: NorthLink Orkey & Shetland Ferries Ltd

Last reported at 2017-Dec-11 17:00 UTC. Time now 2017-Dec-12 04:29 UTC.
Position N 57°09' W 002°05'.

Length 125 m; draft 5.4 m.

Type: Passenger vessel. MMSI: 235448000.

Date/timePositionNaut miles runAvg speedWind from/ knotsBaromVisibWave heightAir tempDewpointWater temp
2017-Dec-11 17:00N 57°09' W 002°05'0 0.0
2017-Dec-11 16:30N 57°09' W 002°05'0 0.0
2017-Dec-11 16:00N 57°09' W 002°05'0 0.0
2017-Dec-11 15:30N 57°09' W 002°05'0 0.0
2017-Dec-11 15:00N 57°09' W 002°05'0 0.0
2017-Dec-11 14:30N 57°09' W 002°05'0 0.0
2017-Dec-11 14:00N 57°09' W 002°05'0 0.0
2017-Dec-11 13:30N 57°09' W 002°05'0 0.0
2017-Dec-11 13:00N 57°09' W 002°05'0 0.0
2017-Dec-11 12:31N 57°09' W 002°05'0 0.0
2017-Dec-11 12:00N 57°09' W 002°05'0 0.0
2017-Dec-11 11:30N 57°09' W 002°05'0 0.0
2017-Dec-11 11:00N 57°09' W 002°05'0 0.0
2017-Dec-11 10:30N 57°09' W 002°05'0 0.0
2017-Dec-11 10:00N 57°09' W 002°05'0 0.0
2017-Dec-11 09:30N 57°09' W 002°05'0 0.0
2017-Dec-11 09:00N 57°09' W 002°05'0 0.0
2017-Dec-11 08:30N 57°09' W 002°05'0 0.0
2017-Dec-11 08:00N 57°09' W 002°05'0 0.0
2017-Dec-11 07:30N 57°09' W 002°05'0 0.0
2017-Dec-11 07:00N 57°09' W 002°05'1 1.1
2017-Dec-11 06:30N 57°09' W 002°04'714.0
2017-Dec-11 06:00N 57°14' W 001°55'713.9
2017-Dec-11 05:30N 57°19' W 001°48'1217.4
2017-Dec-11 04:50N 57°30' W 001°38'619.0
2017-Dec-11 04:30N 57°36' W 001°38'1417.8
2017-Dec-11 03:43N 57°50' W 001°39'78 3.0
2017-Dec-10 01:28N 59°04' W 002°28'712.5
2017-Dec-10 00:57N 59°00' W 002°39'614.5
2017-Dec-10 00:30N 59°01' W 002°51'4 5.8
2017-Dec-09 23:51N 58°60' W 002°58'0 0.0
2017-Dec-09 23:26N 58°60' W 002°58'4 9.6
2017-Dec-09 23:00N 59°01' W 002°51'7521.6
2017-Dec-09 19:33N 57°52' W 001°54'121.3
2017-Dec-09 19:30N 57°51' W 001°53'1121.4
2017-Dec-09 19:00N 57°41' W 001°47'1021.0
2017-Dec-09 18:30N 57°31' W 001°42'1321.2
2017-Dec-09 17:52N 57°18' W 001°48'821.4
2017-Dec-09 17:30N 57°12' W 001°57'510.8
2017-Dec-09 17:00N 57°09' W 002°05'0 0.0
2017-Dec-09 16:30N 57°09' W 002°05'0 0.0
2017-Dec-09 16:00N 57°09' W 002°05'0 0.0
2017-Dec-09 15:30N 57°09' W 002°05'0 0.0
2017-Dec-09 15:00N 57°09' W 002°05'0 0.0
2017-Dec-09 14:30N 57°09' W 002°05'0 0.0
2017-Dec-09 14:00N 57°09' W 002°05'0 0.0
2017-Dec-09 13:30N 57°09' W 002°05'0 0.0
2017-Dec-09 13:00N 57°09' W 002°05'0 0.0
2017-Dec-09 12:30N 57°09' W 002°05'0 0.0
2017-Dec-09 12:00N 57°09' W 002°05'0 0.0
2017-Dec-09 11:30N 57°09' W 002°05'0 0.0
2017-Dec-09 11:00N 57°09' W 002°05'0 0.0
2017-Dec-09 10:30N 57°09' W 002°05'0 0.0
2017-Dec-09 10:00N 57°09' W 002°05'0 0.0
2017-Dec-09 09:30N 57°09' W 002°05'0 0.0
2017-Dec-09 09:00N 57°09' W 002°05'0 0.0
2017-Dec-09 08:30N 57°09' W 002°05'0 0.0
2017-Dec-09 08:00N 57°09' W 002°05'0 0.0
2017-Dec-09 07:30N 57°09' W 002°05'0 0.0
2017-Dec-09 07:00N 57°09' W 002°05'0 0.0
2017-Dec-09 06:30N 57°09' W 002°05'0 0.0
2017-Dec-09 06:00N 57°09' W 002°05'0 0.0
2017-Dec-09 05:30N 57°09' W 002°05'0 0.0
2017-Dec-09 05:00N 57°09' W 002°05'0 0.0
2017-Dec-09 04:30N 57°09' W 002°05'0 0.0
2017-Dec-09 04:00N 57°09' W 002°05'0 0.0
2017-Dec-09 03:30N 57°09' W 002°05'0 0.0
2017-Dec-09 03:00N 57°09' W 002°05'0 0.0
2017-Dec-09 02:30N 57°09' W 002°05'0 0.0
2017-Dec-09 02:00N 57°09' W 002°05'0 0.0
2017-Dec-09 01:30N 57°09' W 002°05'0 0.0
2017-Dec-09 01:00N 57°09' W 002°05'0 0.0
2017-Dec-09 00:30N 57°09' W 002°05'0 0.0
2017-Dec-09 00:00N 57°09' W 002°05'0 0.0
2017-Dec-08 23:30N 57°09' W 002°05'0 0.0
2017-Dec-08 23:00N 57°09' W 002°05'0 0.0
2017-Dec-08 22:30N 57°09' W 002°05'0 0.0
2017-Dec-08 22:00N 57°09' W 002°05'0 0.0
2017-Dec-08 21:30N 57°09' W 002°05'0 0.0
2017-Dec-08 21:00N 57°09' W 002°05'0 0.0
2017-Dec-08 20:30N 57°09' W 002°05'0 0.0
2017-Dec-08 20:00N 57°09' W 002°05'0 0.0
2017-Dec-08 19:30N 57°09' W 002°05'0 0.0
2017-Dec-08 19:00N 57°09' W 002°05'0 0.0
2017-Dec-08 18:30N 57°09' W 002°05'0 0.0
2017-Dec-08 18:00N 57°09' W 002°05'0 0.0
2017-Dec-08 17:30N 57°09' W 002°05'0 0.0
2017-Dec-08 17:00N 57°09' W 002°05'0 0.0
2017-Dec-08 16:30N 57°09' W 002°05'0 0.0
2017-Dec-08 16:00N 57°09' W 002°05'0 0.0
2017-Dec-08 15:30N 57°09' W 002°05'0 0.0
2017-Dec-08 15:00N 57°09' W 002°05'0 0.0
2017-Dec-08 14:30N 57°09' W 002°05'0 0.0
2017-Dec-08 14:00N 57°09' W 002°05'0 0.0
2017-Dec-08 13:30N 57°09' W 002°05'0 0.0
2017-Dec-08 13:00N 57°09' W 002°05'0 0.0
2017-Dec-08 12:30N 57°09' W 002°05'0 0.0
2017-Dec-08 12:00N 57°09' W 002°05'0 0.0
2017-Dec-08 11:30N 57°09' W 002°05'0 0.0
2017-Dec-08 11:00N 57°09' W 002°05'0 0.0
2017-Dec-08 10:30N 57°09' W 002°05'0 0.0
2017-Dec-08 10:00N 57°09' W 002°05'0 0.0
2017-Dec-08 09:30N 57°09' W 002°05'0 0.0
2017-Dec-08 09:00N 57°09' W 002°05'0 0.0
2017-Dec-08 08:30N 57°09' W 002°05'0 0.0
2017-Dec-08 08:00N 57°09' W 002°05'0 0.0
2017-Dec-08 07:30N 57°09' W 002°05'0 0.0
2017-Dec-08 07:00N 57°09' W 002°05'0 0.0
2017-Dec-08 06:30N 57°09' W 002°05'0 0.0
2017-Dec-08 06:00N 57°09' W 002°05'0 0.0
2017-Dec-08 05:30N 57°09' W 002°05'0 0.0
2017-Dec-08 05:00N 57°09' W 002°05'0 0.0
2017-Dec-08 04:30N 57°09' W 002°05'0 0.0
2017-Dec-08 04:00N 57°09' W 002°05'0 0.0
2017-Dec-08 03:30N 57°09' W 002°05'0 0.0
2017-Dec-08 03:00N 57°09' W 002°05'0 0.0
2017-Dec-08 02:30N 57°09' W 002°05'0 0.0
2017-Dec-08 02:00N 57°09' W 002°05'0 0.0
2017-Dec-08 01:30N 57°09' W 002°05'0 0.0
2017-Dec-08 01:00N 57°09' W 002°05'0 0.0
2017-Dec-08 00:30N 57°09' W 002°05'0 0.0
2017-Dec-08 00:00N 57°09' W 002°05'0 0.0
2017-Dec-07 23:30N 57°09' W 002°05'0 0.0
2017-Dec-07 23:00N 57°09' W 002°05'0 0.0
2017-Dec-07 22:30N 57°09' W 002°05'0 0.0
2017-Dec-07 22:00N 57°09' W 002°05'0 0.0
2017-Dec-07 21:30N 57°09' W 002°05'0 0.0
2017-Dec-07 21:00N 57°09' W 002°05'0 0.0
2017-Dec-07 20:30N 57°09' W 002°05'0 0.0
2017-Dec-07 20:00N 57°09' W 002°05'0 0.0
2017-Dec-07 19:30N 57°09' W 002°05'0 0.0
2017-Dec-07 19:00N 57°09' W 002°05'0 0.0
2017-Dec-07 18:30N 57°09' W 002°05'0 0.0
2017-Dec-07 18:00N 57°09' W 002°05'0 0.0
2017-Dec-07 17:30N 57°09' W 002°05'0 0.0
2017-Dec-07 17:00N 57°09' W 002°05'0 0.0
2017-Dec-07 16:30N 57°09' W 002°05'0 0.0
2017-Dec-07 16:00N 57°09' W 002°05'0 0.0
2017-Dec-07 15:30N 57°09' W 002°05'0 0.0
2017-Dec-07 15:00N 57°09' W 002°05'0 0.0
2017-Dec-07 14:30N 57°09' W 002°05'0 0.0
2017-Dec-07 14:00N 57°09' W 002°05'0 0.0
2017-Dec-07 13:30N 57°09' W 002°05'0 0.0
2017-Dec-07 13:00N 57°09' W 002°05'0 0.0
2017-Dec-07 12:30N 57°09' W 002°05'0 0.0
2017-Dec-07 12:00N 57°09' W 002°05'0 0.0
2017-Dec-07 11:30N 57°09' W 002°05'0 0.0
2017-Dec-07 11:00N 57°09' W 002°05'0 0.0
2017-Dec-07 10:30N 57°09' W 002°05'0 0.0
2017-Dec-07 10:00N 57°09' W 002°05'0 0.0
2017-Dec-07 09:30N 57°09' W 002°05'0 0.0
2017-Dec-07 09:00N 57°09' W 002°05'0 0.0
2017-Dec-07 08:30N 57°09' W 002°05'0 0.0
2017-Dec-07 08:00N 57°09' W 002°05'0 0.0
2017-Dec-07 07:30N 57°09' W 002°05'0 0.0
2017-Dec-07 07:00N 57°09' W 002°05'1 1.8
2017-Dec-07 06:30N 57°09' W 002°04'714.5
2017-Dec-07 06:00N 57°14' W 001°55'1415.2
2017-Dec-07 05:07N 57°26' W 001°43'215.3
2017-Dec-07 05:00N 57°28' W 001°42'1122.4
2017-Dec-07 04:30N 57°39' W 001°47'1224.1
2017-Dec-07 04:00N 57°48' W 002°01'7222.3
2017-Dec-07 00:47N 58°57' W 002°37'621.4
2017-Dec-07 00:30N 59°00' W 002°47'610.9
2017-Dec-06 23:58N 58°60' W 002°58'0 0.0
2017-Dec-06 23:26N 58°60' W 002°58'0 0.0
2017-Dec-06 22:57N 58°60' W 002°58'0 0.2
2017-Dec-06 22:29N 58°60' W 002°58'816.4
2017-Dec-06 22:00N 59°00' W 002°43'  
2017-Dec-04 01:16N 59°04' W 002°28'412.9
2017-Dec-04 00:57N 59°01' W 002°33'511.7
2017-Dec-04 00:30N 59°00' W 002°43'612.6
2017-Dec-04 00:00N 59°01' W 002°55'2 2.0
2017-Dec-03 22:57N 58°60' W 002°58'511.6
2017-Dec-03 22:30N 59°00' W 002°49'10521.8
2017-Dec-03 17:41N 57°21' W 001°45'424.9
2017-Dec-03 17:30N 57°17' W 001°50'1122.2
2017-Dec-03 17:00N 57°09' W 002°04'1 2.0
2017-Dec-03 16:30N 57°09' W 002°05'0 0.0
2017-Dec-03 16:00N 57°09' W 002°05'0 0.0
2017-Dec-03 15:30N 57°09' W 002°05'0 0.0
2017-Dec-03 15:00N 57°09' W 002°05'0 0.0
2017-Dec-03 14:30N 57°09' W 002°05'0 0.0
2017-Dec-03 14:00N 57°09' W 002°05'0 0.0
2017-Dec-03 13:30N 57°09' W 002°05'0 0.0
2017-Dec-03 13:00N 57°09' W 002°05'0 0.0
2017-Dec-03 12:30N 57°09' W 002°05'0 0.0
2017-Dec-03 12:00N 57°09' W 002°05'0 0.0
2017-Dec-03 11:30N 57°09' W 002°05'0 0.0
2017-Dec-03 11:00N 57°09' W 002°05'0 0.0
2017-Dec-03 10:30N 57°09' W 002°05'0 0.0
2017-Dec-03 10:00N 57°09' W 002°05'0 0.0
2017-Dec-03 09:30N 57°09' W 002°05'0 0.0
2017-Dec-03 09:00N 57°09' W 002°05'0 0.0
2017-Dec-03 08:30N 57°09' W 002°05'0 0.0
2017-Dec-03 08:00N 57°09' W 002°05'0 0.0
2017-Dec-03 07:30N 57°09' W 002°05'0 0.0
2017-Dec-03 07:00N 57°09' W 002°05'1 1.3
2017-Dec-03 06:30N 57°08' W 002°04'714.0
2017-Dec-03 06:00N 57°14' W 001°55'7 0.2
2017-Dec-01 19:58N 57°20' W 001°48'714.5
2017-Dec-01 19:30N 57°14' W 001°55'714.5
2017-Dec-01 19:00N 57°09' W 002°04'1 2.0
2017-Dec-01 18:30N 57°09' W 002°05'0 0.0
2017-Dec-01 18:01N 57°09' W 002°05'0 0.0
2017-Dec-01 17:30N 57°09' W 002°05'0 0.0
2017-Dec-01 17:00N 57°09' W 002°05'  
Track history (hours):
 
Tides and Currents Weather Stations Pressure Air Temp Water Temp Dewpoint Dewpoint Depression Visibility Wind Speed Wind Dir Waves Ship Positions

Hrossey

Operator: NorthLink Orkey & Shetland Ferries Ltd

Last reported at 2017-Dec-11 17:00 UTC. Time now 2017-Dec-12 04:29 UTC.
Position N 57°09' W 002°05'.

Length 125 m; draft 5.4 m.

Type: Passenger vessel. MMSI: 235448000.

Date/timePositionNaut miles runAvg speedWind from/ knotsBaromVisibWave heightAir tempDewpointWater temp
2017-Dec-11 17:00N 57°09' W 002°05'0 0.0
2017-Dec-11 16:30N 57°09' W 002°05'0 0.0
2017-Dec-11 16:00N 57°09' W 002°05'0 0.0
2017-Dec-11 15:30N 57°09' W 002°05'0 0.0
2017-Dec-11 15:00N 57°09' W 002°05'0 0.0
2017-Dec-11 14:30N 57°09' W 002°05'0 0.0
2017-Dec-11 14:00N 57°09' W 002°05'0 0.0
2017-Dec-11 13:30N 57°09' W 002°05'0 0.0
2017-Dec-11 13:00N 57°09' W 002°05'0 0.0
2017-Dec-11 12:31N 57°09' W 002°05'0 0.0
2017-Dec-11 12:00N 57°09' W 002°05'0 0.0
2017-Dec-11 11:30N 57°09' W 002°05'0 0.0
2017-Dec-11 11:00N 57°09' W 002°05'0 0.0
2017-Dec-11 10:30N 57°09' W 002°05'0 0.0
2017-Dec-11 10:00N 57°09' W 002°05'0 0.0
2017-Dec-11 09:30N 57°09' W 002°05'0 0.0
2017-Dec-11 09:00N 57°09' W 002°05'0 0.0
2017-Dec-11 08:30N 57°09' W 002°05'0 0.0
2017-Dec-11 08:00N 57°09' W 002°05'0 0.0
2017-Dec-11 07:30N 57°09' W 002°05'0 0.0
2017-Dec-11 07:00N 57°09' W 002°05'1 1.1
2017-Dec-11 06:30N 57°09' W 002°04'714.0
2017-Dec-11 06:00N 57°14' W 001°55'713.9
2017-Dec-11 05:30N 57°19' W 001°48'1217.4
2017-Dec-11 04:50N 57°30' W 001°38'619.0
2017-Dec-11 04:30N 57°36' W 001°38'1417.8
2017-Dec-11 03:43N 57°50' W 001°39'78 3.0
2017-Dec-10 01:28N 59°04' W 002°28'712.5
2017-Dec-10 00:57N 59°00' W 002°39'614.5
2017-Dec-10 00:30N 59°01' W 002°51'4 5.8
2017-Dec-09 23:51N 58°60' W 002°58'0 0.0
2017-Dec-09 23:26N 58°60' W 002°58'4 9.6
2017-Dec-09 23:00N 59°01' W 002°51'7521.6
2017-Dec-09 19:33N 57°52' W 001°54'121.3
2017-Dec-09 19:30N 57°51' W 001°53'1121.4
2017-Dec-09 19:00N 57°41' W 001°47'1021.0
2017-Dec-09 18:30N 57°31' W 001°42'1321.2
2017-Dec-09 17:52N 57°18' W 001°48'821.4
2017-Dec-09 17:30N 57°12' W 001°57'510.8
2017-Dec-09 17:00N 57°09' W 002°05'0 0.0
2017-Dec-09 16:30N 57°09' W 002°05'0 0.0
2017-Dec-09 16:00N 57°09' W 002°05'0 0.0
2017-Dec-09 15:30N 57°09' W 002°05'0 0.0
2017-Dec-09 15:00N 57°09' W 002°05'0 0.0
2017-Dec-09 14:30N 57°09' W 002°05'0 0.0
2017-Dec-09 14:00N 57°09' W 002°05'0 0.0
2017-Dec-09 13:30N 57°09' W 002°05'0 0.0
2017-Dec-09 13:00N 57°09' W 002°05'0 0.0
2017-Dec-09 12:30N 57°09' W 002°05'0 0.0
2017-Dec-09 12:00N 57°09' W 002°05'0 0.0
2017-Dec-09 11:30N 57°09' W 002°05'0 0.0
2017-Dec-09 11:00N 57°09' W 002°05'0 0.0
2017-Dec-09 10:30N 57°09' W 002°05'0 0.0
2017-Dec-09 10:00N 57°09' W 002°05'0 0.0
2017-Dec-09 09:30N 57°09' W 002°05'0 0.0
2017-Dec-09 09:00N 57°09' W 002°05'0 0.0
2017-Dec-09 08:30N 57°09' W 002°05'0 0.0
2017-Dec-09 08:00N 57°09' W 002°05'0 0.0
2017-Dec-09 07:30N 57°09' W 002°05'0 0.0
2017-Dec-09 07:00N 57°09' W 002°05'0 0.0
2017-Dec-09 06:30N 57°09' W 002°05'0 0.0
2017-Dec-09 06:00N 57°09' W 002°05'0 0.0
2017-Dec-09 05:30N 57°09' W 002°05'0 0.0
2017-Dec-09 05:00N 57°09' W 002°05'0 0.0
2017-Dec-09 04:30N 57°09' W 002°05'0 0.0
2017-Dec-09 04:00N 57°09' W 002°05'0 0.0
2017-Dec-09 03:30N 57°09' W 002°05'0 0.0
2017-Dec-09 03:00N 57°09' W 002°05'0 0.0
2017-Dec-09 02:30N 57°09' W 002°05'0 0.0
2017-Dec-09 02:00N 57°09' W 002°05'0 0.0
2017-Dec-09 01:30N 57°09' W 002°05'0 0.0
2017-Dec-09 01:00N 57°09' W 002°05'0 0.0
2017-Dec-09 00:30N 57°09' W 002°05'0 0.0
2017-Dec-09 00:00N 57°09' W 002°05'0 0.0
2017-Dec-08 23:30N 57°09' W 002°05'0 0.0
2017-Dec-08 23:00N 57°09' W 002°05'0 0.0
2017-Dec-08 22:30N 57°09' W 002°05'0 0.0
2017-Dec-08 22:00N 57°09' W 002°05'0 0.0
2017-Dec-08 21:30N 57°09' W 002°05'0 0.0
2017-Dec-08 21:00N 57°09' W 002°05'0 0.0
2017-Dec-08 20:30N 57°09' W 002°05'0 0.0
2017-Dec-08 20:00N 57°09' W 002°05'0 0.0
2017-Dec-08 19:30N 57°09' W 002°05'0 0.0
2017-Dec-08 19:00N 57°09' W 002°05'0 0.0
2017-Dec-08 18:30N 57°09' W 002°05'0 0.0
2017-Dec-08 18:00N 57°09' W 002°05'0 0.0
2017-Dec-08 17:30N 57°09' W 002°05'0 0.0
2017-Dec-08 17:00N 57°09' W 002°05'0 0.0
2017-Dec-08 16:30N 57°09' W 002°05'0 0.0
2017-Dec-08 16:00N 57°09' W 002°05'0 0.0
2017-Dec-08 15:30N 57°09' W 002°05'0 0.0
2017-Dec-08 15:00N 57°09' W 002°05'0 0.0
2017-Dec-08 14:30N 57°09' W 002°05'0 0.0
2017-Dec-08 14:00N 57°09' W 002°05'0 0.0
2017-Dec-08 13:30N 57°09' W 002°05'0 0.0
2017-Dec-08 13:00N 57°09' W 002°05'0 0.0
2017-Dec-08 12:30N 57°09' W 002°05'0 0.0
2017-Dec-08 12:00N 57°09' W 002°05'0 0.0
2017-Dec-08 11:30N 57°09' W 002°05'0 0.0
2017-Dec-08 11:00N 57°09' W 002°05'0 0.0
2017-Dec-08 10:30N 57°09' W 002°05'0 0.0
2017-Dec-08 10:00N 57°09' W 002°05'0 0.0
2017-Dec-08 09:30N 57°09' W 002°05'0 0.0
2017-Dec-08 09:00N 57°09' W 002°05'0 0.0
2017-Dec-08 08:30N 57°09' W 002°05'0 0.0
2017-Dec-08 08:00N 57°09' W 002°05'0 0.0
2017-Dec-08 07:30N 57°09' W 002°05'0 0.0
2017-Dec-08 07:00N 57°09' W 002°05'0 0.0
2017-Dec-08 06:30N 57°09' W 002°05'0 0.0
2017-Dec-08 06:00N 57°09' W 002°05'0 0.0
2017-Dec-08 05:30N 57°09' W 002°05'0 0.0
2017-Dec-08 05:00N 57°09' W 002°05'0 0.0
2017-Dec-08 04:30N 57°09' W 002°05'0 0.0
2017-Dec-08 04:00N 57°09' W 002°05'0 0.0
2017-Dec-08 03:30N 57°09' W 002°05'0 0.0
2017-Dec-08 03:00N 57°09' W 002°05'0 0.0
2017-Dec-08 02:30N 57°09' W 002°05'0 0.0
2017-Dec-08 02:00N 57°09' W 002°05'0 0.0
2017-Dec-08 01:30N 57°09' W 002°05'0 0.0
2017-Dec-08 01:00N 57°09' W 002°05'0 0.0
2017-Dec-08 00:30N 57°09' W 002°05'0 0.0
2017-Dec-08 00:00N 57°09' W 002°05'0 0.0
2017-Dec-07 23:30N 57°09' W 002°05'0 0.0
2017-Dec-07 23:00N 57°09' W 002°05'0 0.0
2017-Dec-07 22:30N 57°09' W 002°05'0 0.0
2017-Dec-07 22:00N 57°09' W 002°05'0 0.0
2017-Dec-07 21:30N 57°09' W 002°05'0 0.0
2017-Dec-07 21:00N 57°09' W 002°05'0 0.0
2017-Dec-07 20:30N 57°09' W 002°05'0 0.0
2017-Dec-07 20:00N 57°09' W 002°05'0 0.0
2017-Dec-07 19:30N 57°09' W 002°05'0 0.0
2017-Dec-07 19:00N 57°09' W 002°05'0 0.0
2017-Dec-07 18:30N 57°09' W 002°05'0 0.0
2017-Dec-07 18:00N 57°09' W 002°05'0 0.0
2017-Dec-07 17:30N 57°09' W 002°05'0 0.0
2017-Dec-07 17:00N 57°09' W 002°05'0 0.0
2017-Dec-07 16:30N 57°09' W 002°05'0 0.0
2017-Dec-07 16:00N 57°09' W 002°05'0 0.0
2017-Dec-07 15:30N 57°09' W 002°05'0 0.0
2017-Dec-07 15:00N 57°09' W 002°05'0 0.0
2017-Dec-07 14:30N 57°09' W 002°05'0 0.0
2017-Dec-07 14:00N 57°09' W 002°05'0 0.0
2017-Dec-07 13:30N 57°09' W 002°05'0 0.0
2017-Dec-07 13:00N 57°09' W 002°05'0 0.0
2017-Dec-07 12:30N 57°09' W 002°05'0 0.0
2017-Dec-07 12:00N 57°09' W 002°05'0 0.0
2017-Dec-07 11:30N 57°09' W 002°05'0 0.0
2017-Dec-07 11:00N 57°09' W 002°05'0 0.0
2017-Dec-07 10:30N 57°09' W 002°05'0 0.0
2017-Dec-07 10:00N 57°09' W 002°05'0 0.0
2017-Dec-07 09:30N 57°09' W 002°05'0 0.0
2017-Dec-07 09:00N 57°09' W 002°05'0 0.0
2017-Dec-07 08:30N 57°09' W 002°05'0 0.0
2017-Dec-07 08:00N 57°09' W 002°05'0 0.0
2017-Dec-07 07:30N 57°09' W 002°05'0 0.0
2017-Dec-07 07:00N 57°09' W 002°05'1 1.8
2017-Dec-07 06:30N 57°09' W 002°04'714.5
2017-Dec-07 06:00N 57°14' W 001°55'1415.2
2017-Dec-07 05:07N 57°26' W 001°43'215.3
2017-Dec-07 05:00N 57°28' W 001°42'1122.4
2017-Dec-07 04:30N 57°39' W 001°47'1224.1
2017-Dec-07 04:00N 57°48' W 002°01'7222.3
2017-Dec-07 00:47N 58°57' W 002°37'621.4
2017-Dec-07 00:30N 59°00' W 002°47'610.9
2017-Dec-06 23:58N 58°60' W 002°58'0 0.0
2017-Dec-06 23:26N 58°60' W 002°58'0 0.0
2017-Dec-06 22:57N 58°60' W 002°58'0 0.2
2017-Dec-06 22:29N 58°60' W 002°58'816.4
2017-Dec-06 22:00N 59°00' W 002°43'  
2017-Dec-04 01:16N 59°04' W 002°28'412.9
2017-Dec-04 00:57N 59°01' W 002°33'511.7
2017-Dec-04 00:30N 59°00' W 002°43'612.6
2017-Dec-04 00:00N 59°01' W 002°55'2 2.0
2017-Dec-03 22:57N 58°60' W 002°58'511.6
2017-Dec-03 22:30N 59°00' W 002°49'10521.8
2017-Dec-03 17:41N 57°21' W 001°45'424.9
2017-Dec-03 17:30N 57°17' W 001°50'1122.2
2017-Dec-03 17:00N 57°09' W 002°04'1 2.0
2017-Dec-03 16:30N 57°09' W 002°05'0 0.0
2017-Dec-03 16:00N 57°09' W 002°05'0 0.0
2017-Dec-03 15:30N 57°09' W 002°05'0 0.0
2017-Dec-03 15:00N 57°09' W 002°05'0 0.0
2017-Dec-03 14:30N 57°09' W 002°05'0 0.0
2017-Dec-03 14:00N 57°09' W 002°05'0 0.0
2017-Dec-03 13:30N 57°09' W 002°05'0 0.0
2017-Dec-03 13:00N 57°09' W 002°05'0 0.0
2017-Dec-03 12:30N 57°09' W 002°05'0 0.0
2017-Dec-03 12:00N 57°09' W 002°05'0 0.0
2017-Dec-03 11:30N 57°09' W 002°05'0 0.0
2017-Dec-03 11:00N 57°09' W 002°05'0 0.0
2017-Dec-03 10:30N 57°09' W 002°05'0 0.0
2017-Dec-03 10:00N 57°09' W 002°05'0 0.0
2017-Dec-03 09:30N 57°09' W 002°05'0 0.0
2017-Dec-03 09:00N 57°09' W 002°05'0 0.0
2017-Dec-03 08:30N 57°09' W 002°05'0 0.0
2017-Dec-03 08:00N 57°09' W 002°05'0 0.0
2017-Dec-03 07:30N 57°09' W 002°05'0 0.0
2017-Dec-03 07:00N 57°09' W 002°05'1 1.3
2017-Dec-03 06:30N 57°08' W 002°04'714.0
2017-Dec-03 06:00N 57°14' W 001°55'7 0.2
2017-Dec-01 19:58N 57°20' W 001°48'714.5
2017-Dec-01 19:30N 57°14' W 001°55'714.5
2017-Dec-01 19:00N 57°09' W 002°04'1 2.0
2017-Dec-01 18:30N 57°09' W 002°05'0 0.0
2017-Dec-01 18:01N 57°09' W 002°05'0 0.0
2017-Dec-01 17:30N 57°09' W 002°05'0 0.0
2017-Dec-01 17:00N 57°09' W 002°05'  

Dump ship's entire track history